Malmo Sturup, Sweden

2:34 AM CEST on May 23, 2015 (GMT +0200)
Dammen | | Change Station
CLOSE
Current Station
Personal Weather Station
Location: Skåne Län, SKåNE LäN
Elevation: 341 ft
Nearby Weather Stations

Elev 341 ft 55.61 °N, 13.44 °E | Updated 3 seconds ago

Overcast
Overcast
52.5 °F
Feels Like 52.5 °F
N
1.2
Wind Variable Wind from SW
Gusts 3.5 mph

Today
High -- | Low -- °F
--% Chance of Precip.
Yesterday
High -- | Low -- °F
Precip. -- in
4:43 AM 9:24 PM
Waxing Crescent, 25% visible
Pressure 30.06 in
Visibility 6.2 miles
Clouds Overcast 2100 ft
Dew Point 48 °F
Humidity 84%
Rainfall 0.00 in
Snow Depth Not available.
UV 0 out of 12
Pollen Not available.
Air Quality Not available.
Flu Activity Not available.
METAR ESMS 230020Z 26010KT 9999 OVC021 12/08 Q1018

More Conditions Fewer Conditions

Pressure 30.06 in
Visibility 6.2 miles
Clouds Overcast 2100 ft
Dew Point 48 °F
Humidity 84%
Rainfall 0.00 in
Snow Depth Not available.
UV 0 out of 12
Pollen Not available.
Air Quality Not available.
Flu Activity Not available.
METAR ESMS 230020Z 26010KT 9999 OVC021 12/08 Q1018

More Conditions Fewer Conditions

10-Day Weather Forecast

Almanac

Astronomy

May. 23, 2015 Rise Set
Actual Time
Civil Twilight
Nautical Twilight
Astronomical Twilight
Moon
Length of Visible Light
Length of Day
Tomorrow will be .
, % of the Moon is Illuminated

Today's Extremes

Country Highs Country Lows

Community

WunderPhotos

Upload Photos

1,823,344 photos uploaded!

WunderBlogs® & News

Nearby

Air Quality

  Air Quality AQ Index Pollutant
Not available.

Snow Depth

Station Depth Elevation

Earthquake Activity

City Distance Mag. Time & Date
Minimum magnitude displayed is 2.5.

Coastal Water Temperatures

Place Temperature

Stations

Nearby Weather Stations

Station Location Temp. Windchill Dew Point Humidity Wind Precip. Elev Updated Type